sensor_id;sensor_type;location;lat;lon;timestamp;temperature;humidity
3986;DHT22;2007;48.750;9.278;2023-06-01T00:00:34;24.30;55.30
3986;DHT22;2007;48.750;9.278;2023-06-01T00:03:05;24.30;55.30
3986;DHT22;2007;48.750;9.278;2023-06-01T00:05:33;24.30;55.30
3986;DHT22;2007;48.750;9.278;2023-06-01T00:08:01;24.30;55.90
3986;DHT22;2007;48.750;9.278;2023-06-01T00:10:32;24.30;55.20
3986;DHT22;2007;48.750;9.278;2023-06-01T00:13:00;24.30;55.30
3986;DHT22;2007;48.750;9.278;2023-06-01T00:15:28;24.30;55.20
3986;DHT22;2007;48.750;9.278;2023-06-01T00:17:56;24.30;55.30
3986;DHT22;2007;48.750;9.278;2023-06-01T00:20:27;24.30;55.20
3986;DHT22;2007;48.750;9.278;2023-06-01T00:22:56;24.30;55.30
3986;DHT22;2007;48.750;9.278;2023-06-01T00:25:25;24.30;55.20
3986;DHT22;2007;48.750;9.278;2023-06-01T00:27:54;24.30;55.30
3986;DHT22;2007;48.750;9.278;2023-06-01T00:30:23;24.20;55.20
3986;DHT22;2007;48.750;9.278;2023-06-01T00:32:51;24.30;55.30
3986;DHT22;2007;48.750;9.278;2023-06-01T00:35:19;24.30;55.20
3986;DHT22;2007;48.750;9.278;2023-06-01T00:37:47;24.30;55.20
3986;DHT22;2007;48.750;9.278;2023-06-01T00:40:15;24.30;55.20
3986;DHT22;2007;48.750;9.278;2023-06-01T00:42:43;24.30;55.20
3986;DHT22;2007;48.750;9.278;2023-06-01T00:45:12;24.30;55.20
3986;DHT22;2007;48.750;9.278;2023-06-01T00:47:41;24.30;55.90
3986;DHT22;2007;48.750;9.278;2023-06-01T00:50:10;24.30;55.20
3986;DHT22;2007;48.750;9.278;2023-06-01T00:52:40;24.30;55.20
3986;DHT22;2007;48.750;9.278;2023-06-01T00:55:09;24.30;55.20
3986;DHT22;2007;48.750;9.278;2023-06-01T00:57:38;24.30;55.20
3986;DHT22;2007;48.750;9.278;2023-06-01T01:00:07;24.20;55.10
3986;DHT22;2007;48.750;9.278;2023-06-01T01:02:39;24.30;55.20
3986;DHT22;2007;48.750;9.278;2023-06-01T01:05:09;24.30;55.20
3986;DHT22;2007;48.750;9.278;2023-06-01T01:07:44;24.20;55.10
3986;DHT22;2007;48.750;9.278;2023-06-01T01:10:22;24.20;55.10
3986;DHT22;2007;48.750;9.278;2023-06-01T01:12:57;24.30;55.20
3986;DHT22;2007;48.750;9.278;2023-06-01T01:15:32;24.20;55.10
3986;DHT22;2007;48.750;9.278;2023-06-01T01:18:11;24.30;55.20
3986;DHT22;2007;48.750;9.278;2023-06-01T01:20:47;24.30;55.20
3986;DHT22;2007;48.750;9.278;2023-06-01T01:23:38;24.30;55.20
3986;DHT22;2007;48.750;9.278;2023-06-01T01:26:21;24.20;55.10
3986;DHT22;2007;48.750;9.278;2023-06-01T01:28:54;24.20;55.10
3986;DHT22;2007;48.750;9.278;2023-06-01T01:31:26;24.20;55.00
3986;DHT22;2007;48.750;9.278;2023-06-01T01:33:56;24.20;55.10
3986;DHT22;2007;48.750;9.278;2023-06-01T01:36:26;24.30;55.10
3986;DHT22;2007;48.750;9.278;2023-06-01T01:38:54;24.20;55.10
3986;DHT22;2007;48.750;9.278;2023-06-01T01:41:22;24.20;55.00
3986;DHT22;2007;48.750;9.278;2023-06-01T01:43:51;24.30;55.20
3986;DHT22;2007;48.750;9.278;2023-06-01T01:46:23;24.20;55.10
3986;DHT22;2007;48.750;9.278;2023-06-01T01:48:59;24.20;55.10
3986;DHT22;2007;48.750;9.278;2023-06-01T01:51:34;24.20;55.00
3986;DHT22;2007;48.750;9.278;2023-06-01T01:54:05;24.20;55.00
3986;DHT22;2007;48.750;9.278;2023-06-01T01:56:35;24.20;55.00
3986;DHT22;2007;48.750;9.278;2023-06-01T01:59:05;24.20;55.00
3986;DHT22;2007;48.750;9.278;2023-06-01T02:01:34;24.20;55.00
3986;DHT22;2007;48.750;9.278;2023-06-01T02:04:04;24.20;55.10
3986;DHT22;2007;48.750;9.278;2023-06-01T02:06:34;24.20;55.10
3986;DHT22;2007;48.750;9.278;2023-06-01T02:09:03;24.20;55.00
3986;DHT22;2007;48.750;9.278;2023-06-01T02:11:33;24.20;55.00
3986;DHT22;2007;48.750;9.278;2023-06-01T02:14:01;24.20;55.10
3986;DHT22;2007;48.750;9.278;2023-06-01T02:16:31;24.20;55.10
3986;DHT22;2007;48.750;9.278;2023-06-01T02:18:59;24.20;55.00
3986;DHT22;2007;48.750;9.278;2023-06-01T02:21:29;24.20;55.10
3986;DHT22;2007;48.750;9.278;2023-06-01T02:23:57;24.20;55.10
3986;DHT22;2007;48.750;9.278;2023-06-01T02:26:31;24.20;55.00
3986;DHT22;2007;48.750;9.278;2023-06-01T02:28:59;24.20;55.10
3986;DHT22;2007;48.750;9.278;2023-06-01T02:31:29;24.20;55.10
3986;DHT22;2007;48.750;9.278;2023-06-01T02:33:58;24.20;55.00
3986;DHT22;2007;48.750;9.278;2023-06-01T02:36:26;24.20;55.00
3986;DHT22;2007;48.750;9.278;2023-06-01T02:38:55;24.20;55.00
3986;DHT22;2007;48.750;9.278;2023-06-01T02:41:23;24.20;55.00
3986;DHT22;2007;48.750;9.278;2023-06-01T02:43:51;24.20;55.10
3986;DHT22;2007;48.750;9.278;2023-06-01T02:46:20;24.20;55.10
3986;DHT22;2007;48.750;9.278;2023-06-01T02:48:48;24.20;55.70
3986;DHT22;2007;48.750;9.278;2023-06-01T02:51:18;24.20;55.10
3986;DHT22;2007;48.750;9.278;2023-06-01T02:53:47;24.20;55.10
3986;DHT22;2007;48.750;9.278;2023-06-01T02:56:15;24.20;55.00
3986;DHT22;2007;48.750;9.278;2023-06-01T02:58:43;24.20;55.10
3986;DHT22;2007;48.750;9.278;2023-06-01T03:01:11;24.20;55.00
3986;DHT22;2007;48.750;9.278;2023-06-01T03:03:39;24.20;55.10
3986;DHT22;2007;48.750;9.278;2023-06-01T03:06:08;24.20;55.00
3986;DHT22;2007;48.750;9.278;2023-06-01T03:08:38;24.10;55.20
3986;DHT22;2007;48.750;9.278;2023-06-01T03:11:06;24.20;55.70
3986;DHT22;2007;48.750;9.278;2023-06-01T03:13:34;24.10;55.00
3986;DHT22;2007;48.750;9.278;2023-06-01T03:16:02;24.10;55.00
3986;DHT22;2007;48.750;9.278;2023-06-01T03:18:30;24.20;55.10
3986;DHT22;2007;48.750;9.278;2023-06-01T03:20:58;24.10;55.00
3986;DHT22;2007;48.750;9.278;2023-06-01T03:23:27;24.10;54.90
3986;DHT22;2007;48.750;9.278;2023-06-01T03:25:57;24.10;55.00
3986;DHT22;2007;48.750;9.278;2023-06-01T03:28:25;24.10;55.00
3986;DHT22;2007;48.750;9.278;2023-06-01T03:30:53;24.10;55.00
3986;DHT22;2007;48.750;9.278;2023-06-01T03:33:22;24.10;55.00
3986;DHT22;2007;48.750;9.278;2023-06-01T03:35:50;24.10;55.00
3986;DHT22;2007;48.750;9.278;2023-06-01T03:38:18;24.10;55.00
3986;DHT22;2007;48.750;9.278;2023-06-01T03:40:46;24.10;55.00
3986;DHT22;2007;48.750;9.278;2023-06-01T03:43:15;24.10;55.00
3986;DHT22;2007;48.750;9.278;2023-06-01T03:45:43;24.10;55.00
3986;DHT22;2007;48.750;9.278;2023-06-01T03:48:11;24.10;55.00
3986;DHT22;2007;48.750;9.278;2023-06-01T03:50:39;24.10;55.00
3986;DHT22;2007;48.750;9.278;2023-06-01T03:53:07;24.10;55.00
3986;DHT22;2007;48.750;9.278;2023-06-01T03:55:36;24.10;55.00
3986;DHT22;2007;48.750;9.278;2023-06-01T03:58:04;24.10;55.00
3986;DHT22;2007;48.750;9.278;2023-06-01T04:00:35;24.10;55.00
3986;DHT22;2007;48.750;9.278;2023-06-01T04:03:03;24.10;55.00
3986;DHT22;2007;48.750;9.278;2023-06-01T04:05:34;24.10;55.00
3986;DHT22;2007;48.750;9.278;2023-06-01T04:08:03;24.10;55.00
3986;DHT22;2007;48.750;9.278;2023-06-01T04:10:31;24.10;55.00
3986;DHT22;2007;48.750;9.278;2023-06-01T04:12:59;24.10;55.00
3986;DHT22;2007;48.750;9.278;2023-06-01T04:15:27;24.10;55.00
3986;DHT22;2007;48.750;9.278;2023-06-01T04:17:56;24.10;55.00
3986;DHT22;2007;48.750;9.278;2023-06-01T04:20:24;24.10;55.10
3986;DHT22;2007;48.750;9.278;2023-06-01T04:22:52;24.10;55.00
3986;DHT22;2007;48.750;9.278;2023-06-01T04:25:20;24.10;55.00
3986;DHT22;2007;48.750;9.278;2023-06-01T04:27:50;24.10;55.00
3986;DHT22;2007;48.750;9.278;2023-06-01T04:30:21;24.10;55.00
3986;DHT22;2007;48.750;9.278;2023-06-01T04:32:50;24.10;55.10
3986;DHT22;2007;48.750;9.278;2023-06-01T04:35:19;24.10;55.00
3986;DHT22;2007;48.750;9.278;2023-06-01T04:37:48;24.00;54.90
3986;DHT22;2007;48.750;9.278;2023-06-01T04:40:17;24.10;55.10
3986;DHT22;2007;48.750;9.278;2023-06-01T04:42:45;24.10;55.00
3986;DHT22;2007;48.750;9.278;2023-06-01T04:45:16;24.10;55.10
3986;DHT22;2007;48.750;9.278;2023-06-01T04:47:46;24.00;55.00
3986;DHT22;2007;48.750;9.278;2023-06-01T04:50:15;24.00;55.00
3986;DHT22;2007;48.750;9.278;2023-06-01T04:52:44;24.00;55.00
3986;DHT22;2007;48.750;9.278;2023-06-01T04:55:13;24.00;55.00
3986;DHT22;2007;48.750;9.278;2023-06-01T04:57:41;24.00;55.00
3986;DHT22;2007;48.750;9.278;2023-06-01T05:00:11;24.00;54.90
3986;DHT22;2007;48.750;9.278;2023-06-01T05:02:41;24.00;55.00
3986;DHT22;2007;48.750;9.278;2023-06-01T05:05:11;24.10;55.10
3986;DHT22;2007;48.750;9.278;2023-06-01T05:07:40;24.00;55.00
3986;DHT22;2007;48.750;9.278;2023-06-01T05:10:11;24.00;55.00
3986;DHT22;2007;48.750;9.278;2023-06-01T05:12:39;24.00;55.00
3986;DHT22;2007;48.750;9.278;2023-06-01T05:15:09;24.00;55.00
3986;DHT22;2007;48.750;9.278;2023-06-01T05:17:38;24.00;55.00
3986;DHT22;2007;48.750;9.278;2023-06-01T05:20:07;24.00;55.00
3986;DHT22;2007;48.750;9.278;2023-06-01T05:22:36;24.00;55.00
3986;DHT22;2007;48.750;9.278;2023-06-01T05:25:04;24.00;55.00
3986;DHT22;2007;48.750;9.278;2023-06-01T05:27:35;24.00;55.10
3986;DHT22;2007;48.750;9.278;2023-06-01T05:30:04;24.00;55.00
3986;DHT22;2007;48.750;9.278;2023-06-01T05:32:33;24.00;55.10
3986;DHT22;2007;48.750;9.278;2023-06-01T05:35:01;24.00;55.00
3986;DHT22;2007;48.750;9.278;2023-06-01T05:37:31;24.00;55.00
3986;DHT22;2007;48.750;9.278;2023-06-01T05:39:59;24.00;55.10
3986;DHT22;2007;48.750;9.278;2023-06-01T05:42:27;24.00;55.00
3986;DHT22;2007;48.750;9.278;2023-06-01T05:44:56;24.00;55.00
3986;DHT22;2007;48.750;9.278;2023-06-01T05:47:24;24.00;55.00
3986;DHT22;2007;48.750;9.278;2023-06-01T05:49:52;24.00;55.10
3986;DHT22;2007;48.750;9.278;2023-06-01T05:52:20;23.90;55.00
3986;DHT22;2007;48.750;9.278;2023-06-01T05:54:48;23.90;55.00
3986;DHT22;2007;48.750;9.278;2023-06-01T05:57:17;24.00;55.10
3986;DHT22;2007;48.750;9.278;2023-06-01T05:59:45;23.90;55.00
3986;DHT22;2007;48.750;9.278;2023-06-01T06:02:15;24.00;55.10
3986;DHT22;2007;48.750;9.278;2023-06-01T06:04:43;23.90;55.00
3986;DHT22;2007;48.750;9.278;2023-06-01T06:07:11;23.90;55.00
3986;DHT22;2007;48.750;9.278;2023-06-01T06:09:39;23.90;55.00
3986;DHT22;2007;48.750;9.278;2023-06-01T06:12:08;23.90;55.00
3986;DHT22;2007;48.750;9.278;2023-06-01T06:14:36;24.00;55.10
3986;DHT22;2007;48.750;9.278;2023-06-01T06:17:06;23.90;55.00
3986;DHT22;2007;48.750;9.278;2023-06-01T06:19:35;23.90;55.00
3986;DHT22;2007;48.750;9.278;2023-06-01T06:22:04;23.90;55.00
3986;DHT22;2007;48.750;9.278;2023-06-01T06:24:32;24.00;55.10
3986;DHT22;2007;48.750;9.278;2023-06-01T06:27:00;23.90;55.00
3986;DHT22;2007;48.750;9.278;2023-06-01T06:29:29;23.90;55.00
3986;DHT22;2007;48.750;9.278;2023-06-01T06:31:57;23.90;55.00
3986;DHT22;2007;48.750;9.278;2023-06-01T06:34:25;23.90;55.00
3986;DHT22;2007;48.750;9.278;2023-06-01T06:36:54;23.90;55.00
3986;DHT22;2007;48.750;9.278;2023-06-01T06:39:22;23.90;55.00
3986;DHT22;2007;48.750;9.278;2023-06-01T06:41:50;23.90;55.00
3986;DHT22;2007;48.750;9.278;2023-06-01T06:44:18;23.90;55.60
3986;DHT22;2007;48.750;9.278;2023-06-01T06:46:46;23.90;55.00
3986;DHT22;2007;48.750;9.278;2023-06-01T06:49:14;23.90;55.00
3986;DHT22;2007;48.750;9.278;2023-06-01T06:51:42;23.90;55.00
3986;DHT22;2007;48.750;9.278;2023-06-01T06:54:12;23.90;55.00
3986;DHT22;2007;48.750;9.278;2023-06-01T06:56:39;23.90;55.00
3986;DHT22;2007;48.750;9.278;2023-06-01T06:59:08;23.90;55.10
3986;DHT22;2007;48.750;9.278;2023-06-01T07:01:36;23.90;55.10
3986;DHT22;2007;48.750;9.278;2023-06-01T07:04:07;23.90;55.10
3986;DHT22;2007;48.750;9.278;2023-06-01T07:06:36;23.90;55.00
3986;DHT22;2007;48.750;9.278;2023-06-01T07:09:05;23.90;55.10
3986;DHT22;2007;48.750;9.278;2023-06-01T07:11:36;23.90;55.00
3986;DHT22;2007;48.750;9.278;2023-06-01T07:14:04;23.90;54.80
3986;DHT22;2007;48.750;9.278;2023-06-01T07:16:32;23.90;54.90
3986;DHT22;2007;48.750;9.278;2023-06-01T07:19:00;23.90;55.50
3986;DHT22;2007;48.750;9.278;2023-06-01T07:21:28;23.90;54.80
3986;DHT22;2007;48.750;9.278;2023-06-01T07:23:56;23.90;54.90
3986;DHT22;2007;48.750;9.278;2023-06-01T07:26:24;23.90;54.90
3986;DHT22;2007;48.750;9.278;2023-06-01T07:28:54;23.90;54.90
3986;DHT22;2007;48.750;9.278;2023-06-01T07:31:23;23.90;55.00
3986;DHT22;2007;48.750;9.278;2023-06-01T07:33:51;23.90;55.00
3986;DHT22;2007;48.750;9.278;2023-06-01T07:36:20;23.90;55.10
3986;DHT22;2007;48.750;9.278;2023-06-01T07:38:49;23.90;55.00
3986;DHT22;2007;48.750;9.278;2023-06-01T07:41:18;23.90;54.90
3986;DHT22;2007;48.750;9.278;2023-06-01T07:43:46;23.90;54.90
3986;DHT22;2007;48.750;9.278;2023-06-01T07:46:15;23.90;54.90
3986;DHT22;2007;48.750;9.278;2023-06-01T07:48:43;23.90;55.00
3986;DHT22;2007;48.750;9.278;2023-06-01T07:51:12;23.90;55.10
3986;DHT22;2007;48.750;9.278;2023-06-01T07:53:39;23.90;54.90
3986;DHT22;2007;48.750;9.278;2023-06-01T07:56:07;23.90;55.00
3986;DHT22;2007;48.750;9.278;2023-06-01T07:58:35;23.90;55.00
3986;DHT22;2007;48.750;9.278;2023-06-01T08:01:05;23.90;54.80
3986;DHT22;2007;48.750;9.278;2023-06-01T08:03:34;23.90;54.90
3986;DHT22;2007;48.750;9.278;2023-06-01T08:06:03;23.90;55.00
3986;DHT22;2007;48.750;9.278;2023-06-01T08:08:32;23.90;54.90
3986;DHT22;2007;48.750;9.278;2023-06-01T08:11:00;23.90;54.90
3986;DHT22;2007;48.750;9.278;2023-06-01T08:13:28;23.90;54.90
3986;DHT22;2007;48.750;9.278;2023-06-01T08:15:56;23.90;54.90
3986;DHT22;2007;48.750;9.278;2023-06-01T08:18:25;23.90;54.90
3986;DHT22;2007;48.750;9.278;2023-06-01T08:20:55;23.90;54.90
3986;DHT22;2007;48.750;9.278;2023-06-01T08:23:23;23.90;55.00
3986;DHT22;2007;48.750;9.278;2023-06-01T08:25:51;23.90;55.00
3986;DHT22;2007;48.750;9.278;2023-06-01T08:28:18;23.90;55.00
3986;DHT22;2007;48.750;9.278;2023-06-01T08:30:47;23.90;55.00
3986;DHT22;2007;48.750;9.278;2023-06-01T08:33:15;23.90;54.90
3986;DHT22;2007;48.750;9.278;2023-06-01T08:35:43;23.90;55.00
3986;DHT22;2007;48.750;9.278;2023-06-01T08:38:12;23.90;55.00
3986;DHT22;2007;48.750;9.278;2023-06-01T08:40:40;23.90;55.10
3986;DHT22;2007;48.750;9.278;2023-06-01T08:43:12;23.90;55.10
3986;DHT22;2007;48.750;9.278;2023-06-01T08:45:45;23.80;55.00
3986;DHT22;2007;48.750;9.278;2023-06-01T08:48:17;23.90;55.10
3986;DHT22;2007;48.750;9.278;2023-06-01T08:50:50;23.80;55.10
3986;DHT22;2007;48.750;9.278;2023-06-01T08:53:21;23.80;55.10
3986;DHT22;2007;48.750;9.278;2023-06-01T08:55:53;23.80;55.00
3986;DHT22;2007;48.750;9.278;2023-06-01T08:58:21;23.80;55.10
3986;DHT22;2007;48.750;9.278;2023-06-01T09:00:50;23.80;55.10
3986;DHT22;2007;48.750;9.278;2023-06-01T09:03:20;23.80;55.00
3986;DHT22;2007;48.750;9.278;2023-06-01T09:05:48;23.80;55.10
3986;DHT22;2007;48.750;9.278;2023-06-01T09:08:16;23.80;55.00
3986;DHT22;2007;48.750;9.278;2023-06-01T09:10:46;23.80;55.00
3986;DHT22;2007;48.750;9.278;2023-06-01T09:13:30;23.80;55.10
3986;DHT22;2007;48.750;9.278;2023-06-01T09:15:58;23.80;55.10
3986;DHT22;2007;48.750;9.278;2023-06-01T09:18:27;23.80;55.10
3986;DHT22;2007;48.750;9.278;2023-06-01T09:21:10;23.90;55.20
3986;DHT22;2007;48.750;9.278;2023-06-01T09:23:38;23.80;55.10
3986;DHT22;2007;48.750;9.278;2023-06-01T09:26:09;23.80;55.10
3986;DHT22;2007;48.750;9.278;2023-06-01T09:28:56;23.80;55.20
3986;DHT22;2007;48.750;9.278;2023-06-01T09:31:41;23.80;55.20
3986;DHT22;2007;48.750;9.278;2023-06-01T09:34:12;23.80;55.20
3986;DHT22;2007;48.750;9.278;2023-06-01T09:36:42;23.80;55.20
3986;DHT22;2007;48.750;9.278;2023-06-01T09:39:12;23.80;55.20
3986;DHT22;2007;48.750;9.278;2023-06-01T09:41:49;23.80;55.20
3986;DHT22;2007;48.750;9.278;2023-06-01T09:44:26;23.80;55.20
3986;DHT22;2007;48.750;9.278;2023-06-01T09:46:56;23.80;55.20
3986;DHT22;2007;48.750;9.278;2023-06-01T09:49:25;23.80;55.20
3986;DHT22;2007;48.750;9.278;2023-06-01T09:52:08;23.80;55.20
3986;DHT22;2007;48.750;9.278;2023-06-01T09:54:38;23.80;55.20
3986;DHT22;2007;48.750;9.278;2023-06-01T09:57:08;23.80;55.20
3986;DHT22;2007;48.750;9.278;2023-06-01T09:59:41;23.80;55.20
3986;DHT22;2007;48.750;9.278;2023-06-01T10:02:12;23.80;55.20
3986;DHT22;2007;48.750;9.278;2023-06-01T10:04:44;23.80;55.20
3986;DHT22;2007;48.750;9.278;2023-06-01T10:07:13;23.80;55.20
3986;DHT22;2007;48.750;9.278;2023-06-01T10:09:42;23.80;55.20
3986;DHT22;2007;48.750;9.278;2023-06-01T10:12:12;23.80;55.30
3986;DHT22;2007;48.750;9.278;2023-06-01T10:14:41;23.80;55.30
3986;DHT22;2007;48.750;9.278;2023-06-01T10:17:09;23.80;55.20
3986;DHT22;2007;48.750;9.278;2023-06-01T10:19:38;23.80;55.20
3986;DHT22;2007;48.750;9.278;2023-06-01T10:22:06;23.80;55.20
3986;DHT22;2007;48.750;9.278;2023-06-01T10:24:36;23.80;55.20
3986;DHT22;2007;48.750;9.278;2023-06-01T10:27:16;23.80;55.20
3986;DHT22;2007;48.750;9.278;2023-06-01T10:29:47;23.80;55.20
3986;DHT22;2007;48.750;9.278;2023-06-01T10:32:43;23.80;55.20
3986;DHT22;2007;48.750;9.278;2023-06-01T10:38:29;23.80;55.30
3986;DHT22;2007;48.750;9.278;2023-06-01T10:41:29;23.80;55.30
3986;DHT22;2007;48.750;9.278;2023-06-01T10:43:59;23.80;55.30
3986;DHT22;2007;48.750;9.278;2023-06-01T10:46:40;23.80;55.30
3986;DHT22;2007;48.750;9.278;2023-06-01T10:49:11;23.80;55.30
3986;DHT22;2007;48.750;9.278;2023-06-01T10:51:39;23.80;55.40
3986;DHT22;2007;48.750;9.278;2023-06-01T10:54:38;23.80;55.40
3986;DHT22;2007;48.750;9.278;2023-06-01T10:57:23;23.80;55.40
3986;DHT22;2007;48.750;9.278;2023-06-01T11:00:18;23.80;55.40
3986;DHT22;2007;48.750;9.278;2023-06-01T11:02:55;23.80;55.40
3986;DHT22;2007;48.750;9.278;2023-06-01T11:05:40;23.80;55.40
3986;DHT22;2007;48.750;9.278;2023-06-01T11:11:11;23.80;55.40
3986;DHT22;2007;48.750;9.278;2023-06-01T11:13:39;23.80;55.40
3986;DHT22;2007;48.750;9.278;2023-06-01T11:16:29;23.80;55.40
3986;DHT22;2007;48.750;9.278;2023-06-01T11:18:59;23.80;55.40
3986;DHT22;2007;48.750;9.278;2023-06-01T11:21:30;23.80;55.50
3986;DHT22;2007;48.750;9.278;2023-06-01T11:23:59;23.80;55.50
3986;DHT22;2007;48.750;9.278;2023-06-01T11:26:30;23.80;55.50
3986;DHT22;2007;48.750;9.278;2023-06-01T11:29:12;23.80;55.50
3986;DHT22;2007;48.750;9.278;2023-06-01T11:31:44;23.80;55.50
3986;DHT22;2007;48.750;9.278;2023-06-01T11:34:14;23.80;55.50
3986;DHT22;2007;48.750;9.278;2023-06-01T11:36:44;23.80;55.50
3986;DHT22;2007;48.750;9.278;2023-06-01T11:39:20;23.70;55.40
3986;DHT22;2007;48.750;9.278;2023-06-01T11:41:50;23.70;55.40
3986;DHT22;2007;48.750;9.278;2023-06-01T11:44:18;23.70;55.40
3986;DHT22;2007;48.750;9.278;2023-06-01T11:46:52;23.80;55.50
3986;DHT22;2007;48.750;9.278;2023-06-01T11:49:21;23.80;55.50
3986;DHT22;2007;48.750;9.278;2023-06-01T11:51:49;23.80;55.40
3986;DHT22;2007;48.750;9.278;2023-06-01T11:54:25;23.80;55.40
3986;DHT22;2007;48.750;9.278;2023-06-01T11:56:55;23.70;55.30
3986;DHT22;2007;48.750;9.278;2023-06-01T11:59:25;23.80;55.40
3986;DHT22;2007;48.750;9.278;2023-06-01T12:01:56;23.80;55.40
3986;DHT22;2007;48.750;9.278;2023-06-01T12:04:24;23.80;55.40
3986;DHT22;2007;48.750;9.278;2023-06-01T12:07:04;23.80;55.40
3986;DHT22;2007;48.750;9.278;2023-06-01T12:09:34;23.80;55.40
3986;DHT22;2007;48.750;9.278;2023-06-01T12:12:02;23.80;55.50
3986;DHT22;2007;48.750;9.278;2023-06-01T12:14:31;23.80;55.40
3986;DHT22;2007;48.750;9.278;2023-06-01T12:17:01;23.80;55.40
3986;DHT22;2007;48.750;9.278;2023-06-01T12:19:32;23.80;55.40
3986;DHT22;2007;48.750;9.278;2023-06-01T12:22:01;23.80;55.40
3986;DHT22;2007;48.750;9.278;2023-06-01T12:24:31;23.80;55.40
3986;DHT22;2007;48.750;9.278;2023-06-01T12:27:00;23.80;55.30
3986;DHT22;2007;48.750;9.278;2023-06-01T12:29:36;23.80;55.40
3986;DHT22;2007;48.750;9.278;2023-06-01T12:32:06;23.80;55.30
3986;DHT22;2007;48.750;9.278;2023-06-01T12:34:35;23.80;55.40
3986;DHT22;2007;48.750;9.278;2023-06-01T12:37:14;23.80;55.40
3986;DHT22;2007;48.750;9.278;2023-06-01T12:39:42;23.80;55.40
3986;DHT22;2007;48.750;9.278;2023-06-01T12:42:11;23.80;55.40
3986;DHT22;2007;48.750;9.278;2023-06-01T12:44:39;23.80;55.40
3986;DHT22;2007;48.750;9.278;2023-06-01T12:47:10;23.80;55.40
3986;DHT22;2007;48.750;9.278;2023-06-01T12:49:38;23.80;55.40
3986;DHT22;2007;48.750;9.278;2023-06-01T12:52:07;23.80;55.40
3986;DHT22;2007;48.750;9.278;2023-06-01T12:54:36;23.80;55.40
3986;DHT22;2007;48.750;9.278;2023-06-01T12:57:11;23.80;55.40
3986;DHT22;2007;48.750;9.278;2023-06-01T12:59:40;23.80;55.40
3986;DHT22;2007;48.750;9.278;2023-06-01T13:02:10;23.80;55.40
3986;DHT22;2007;48.750;9.278;2023-06-01T13:04:41;23.80;55.40
3986;DHT22;2007;48.750;9.278;2023-06-01T13:07:10;23.80;55.40
3986;DHT22;2007;48.750;9.278;2023-06-01T13:09:38;23.80;55.30
3986;DHT22;2007;48.750;9.278;2023-06-01T13:12:07;23.80;55.30
3986;DHT22;2007;48.750;9.278;2023-06-01T13:14:36;23.80;55.30
3986;DHT22;2007;48.750;9.278;2023-06-01T13:17:04;23.80;55.30
3986;DHT22;2007;48.750;9.278;2023-06-01T13:19:33;23.80;55.30
3986;DHT22;2007;48.750;9.278;2023-06-01T13:22:02;23.80;55.30
3986;DHT22;2007;48.750;9.278;2023-06-01T13:24:30;23.80;55.30
3986;DHT22;2007;48.750;9.278;2023-06-01T13:27:18;23.80;55.30
3986;DHT22;2007;48.750;9.278;2023-06-01T13:29:46;23.80;55.30
3986;DHT22;2007;48.750;9.278;2023-06-01T13:32:14;23.80;55.30
3986;DHT22;2007;48.750;9.278;2023-06-01T13:34:43;23.80;55.30
3986;DHT22;2007;48.750;9.278;2023-06-01T13:37:11;23.80;55.30
3986;DHT22;2007;48.750;9.278;2023-06-01T13:39:40;23.80;55.30
3986;DHT22;2007;48.750;9.278;2023-06-01T13:42:08;23.80;55.40
3986;DHT22;2007;48.750;9.278;2023-06-01T13:44:36;23.80;55.40
3986;DHT22;2007;48.750;9.278;2023-06-01T13:47:05;23.80;55.40
3986;DHT22;2007;48.750;9.278;2023-06-01T13:49:33;23.80;55.40
3986;DHT22;2007;48.750;9.278;2023-06-01T13:52:02;23.90;55.40
3986;DHT22;2007;48.750;9.278;2023-06-01T13:54:30;23.80;55.30
3986;DHT22;2007;48.750;9.278;2023-06-01T13:56:58;23.80;56.00
3986;DHT22;2007;48.750;9.278;2023-06-01T13:59:27;23.80;55.30
3986;DHT22;2007;48.750;9.278;2023-06-01T14:01:59;23.90;55.40
3986;DHT22;2007;48.750;9.278;2023-06-01T14:04:28;23.80;55.30
3986;DHT22;2007;48.750;9.278;2023-06-01T14:06:55;23.90;55.40
3986;DHT22;2007;48.750;9.278;2023-06-01T14:09:25;23.80;55.40
3986;DHT22;2007;48.750;9.278;2023-06-01T14:11:53;23.90;55.50
3986;DHT22;2007;48.750;9.278;2023-06-01T14:14:21;23.90;55.50
3986;DHT22;2007;48.750;9.278;2023-06-01T14:16:49;23.90;55.50
3986;DHT22;2007;48.750;9.278;2023-06-01T14:19:17;23.90;55.50
3986;DHT22;2007;48.750;9.278;2023-06-01T14:21:45;23.90;55.50
3986;DHT22;2007;48.750;9.278;2023-06-01T14:24:13;23.90;55.50
3986;DHT22;2007;48.750;9.278;2023-06-01T14:26:42;23.90;55.50
3986;DHT22;2007;48.750;9.278;2023-06-01T14:29:11;23.90;55.50
3986;DHT22;2007;48.750;9.278;2023-06-01T14:31:39;23.90;55.50
3986;DHT22;2007;48.750;9.278;2023-06-01T14:34:07;23.90;55.50
3986;DHT22;2007;48.750;9.278;2023-06-01T14:36:35;23.90;55.50
3986;DHT22;2007;48.750;9.278;2023-06-01T14:39:13;23.90;55.50
3986;DHT22;2007;48.750;9.278;2023-06-01T14:41:42;23.90;55.50
3986;DHT22;2007;48.750;9.278;2023-06-01T14:44:11;23.90;55.50
3986;DHT22;2007;48.750;9.278;2023-06-01T14:46:39;23.90;55.60
3986;DHT22;2007;48.750;9.278;2023-06-01T14:49:08;23.90;55.60
3986;DHT22;2007;48.750;9.278;2023-06-01T14:51:36;23.90;55.60
3986;DHT22;2007;48.750;9.278;2023-06-01T14:54:04;23.90;55.60
3986;DHT22;2007;48.750;9.278;2023-06-01T14:56:32;23.90;55.60
3986;DHT22;2007;48.750;9.278;2023-06-01T14:59:02;23.90;55.50
3986;DHT22;2007;48.750;9.278;2023-06-01T15:01:29;23.90;55.60
3986;DHT22;2007;48.750;9.278;2023-06-01T15:03:58;23.90;55.50
3986;DHT22;2007;48.750;9.278;2023-06-01T15:06:26;23.90;55.60
3986;DHT22;2007;48.750;9.278;2023-06-01T15:08:54;23.90;55.60
3986;DHT22;2007;48.750;9.278;2023-06-01T15:11:22;23.90;55.50
3986;DHT22;2007;48.750;9.278;2023-06-01T15:13:50;24.00;55.60
3986;DHT22;2007;48.750;9.278;2023-06-01T15:16:19;23.90;55.50
3986;DHT22;2007;48.750;9.278;2023-06-01T15:18:48;23.90;55.50
3986;DHT22;2007;48.750;9.278;2023-06-01T15:21:16;24.00;55.50
3986;DHT22;2007;48.750;9.278;2023-06-01T15:23:44;24.00;55.60
3986;DHT22;2007;48.750;9.278;2023-06-01T15:26:12;24.00;55.50
3986;DHT22;2007;48.750;9.278;2023-06-01T15:28:40;24.00;55.60
3986;DHT22;2007;48.750;9.278;2023-06-01T15:31:08;24.00;55.60
3986;DHT22;2007;48.750;9.278;2023-06-01T15:33:38;24.00;55.60
3986;DHT22;2007;48.750;9.278;2023-06-01T15:36:07;24.00;55.60
3986;DHT22;2007;48.750;9.278;2023-06-01T15:38:35;24.00;55.60
3986;DHT22;2007;48.750;9.278;2023-06-01T15:41:03;24.00;55.60
3986;DHT22;2007;48.750;9.278;2023-06-01T15:43:33;24.00;55.50
3986;DHT22;2007;48.750;9.278;2023-06-01T15:46:01;24.00;55.60
3986;DHT22;2007;48.750;9.278;2023-06-01T15:48:30;24.00;55.60
3986;DHT22;2007;48.750;9.278;2023-06-01T15:51:00;24.00;55.50
3986;DHT22;2007;48.750;9.278;2023-06-01T15:53:28;24.10;55.60
3986;DHT22;2007;48.750;9.278;2023-06-01T15:55:56;24.00;55.50
3986;DHT22;2007;48.750;9.278;2023-06-01T15:58:24;24.00;55.60
3986;DHT22;2007;48.750;9.278;2023-06-01T16:00:52;24.00;55.50
3986;DHT22;2007;48.750;9.278;2023-06-01T16:03:37;24.00;55.50
3986;DHT22;2007;48.750;9.278;2023-06-01T16:06:07;24.10;55.60
3986;DHT22;2007;48.750;9.278;2023-06-01T16:08:35;24.10;55.70
3986;DHT22;2007;48.750;9.278;2023-06-01T16:11:03;24.10;55.70
3986;DHT22;2007;48.750;9.278;2023-06-01T16:13:31;24.10;55.70
3986;DHT22;2007;48.750;9.278;2023-06-01T16:16:00;24.10;55.70
3986;DHT22;2007;48.750;9.278;2023-06-01T16:18:28;24.10;55.70
3986;DHT22;2007;48.750;9.278;2023-06-01T16:20:56;24.10;55.60
3986;DHT22;2007;48.750;9.278;2023-06-01T16:23:25;24.10;55.60
3986;DHT22;2007;48.750;9.278;2023-06-01T16:25:53;24.10;55.70